Terminal Aerodrome Forecast
Issued by NWS

Home | Current Version | Previous Version | Graphics & Text | Print | Product List | Glossary On
Versions: 1 2 3 4 5 6 7 8 9 10 11 12 13 14 15 16 17 18 19 20
000
FTUS43 KICT 211546 AAA
TAFRSL
TAF AMD
KRSL 211546Z 2116/2212 10005KT P6SM FEW007 SCT011
     FM211700 15005KT P6SM SCT007 OVC011
     FM220000 13007KT 4SM BR SCT004 BKN015
     FM220900 20009KT P6SM SCT100=

USA.gov is the U.S. government's official web portal to all federal, state and local government web resources and services.